Time;durP1;ratioP1;P1;durP2;ratioP2;P2;SDS_P1;SDS_P2;PMS_P1;PMS_P2;Temp;Humidity;BMP_temperature;BMP_pressure;BME280_temperature;BME280_humidity;BME280_pressure;Samples;Min_cycle;Max_cycle;Signal;HPM_P1;HPM_P2
2023/12/22 00:01:52;;;;;;;4.53;1.35;;;;;;;-0.43;100.00;96836.97;5057626;28;20039;-70
2023/12/22 00:04:18;;;;;;;6.35;1.85;;;;;;;-0.44;100.00;96861.75;5056052;28;20036;-72
2023/12/22 00:06:43;;;;;;;6.40;1.38;;;;;;;-0.45;100.00;96839.03;5039218;28;20318;-70
2023/12/22 00:09:09;;;;;;;6.63;1.50;;;;;;;-0.50;100.00;96858.19;5056253;28;20041;-69
2023/12/22 00:11:34;;;;;;;6.43;1.63;;;;;;;-0.37;100.00;96844.78;5055865;28;20025;-71
2023/12/22 00:13:59;;;;;;;6.82;1.92;;;;;;;-0.34;100.00;96840.88;5056070;28;20029;-70
2023/12/22 00:16:25;;;;;;;6.38;1.67;;;;;;;-0.33;100.00;96875.03;5057142;28;20593;-70
2023/12/22 00:18:50;;;;;;;6.70;1.83;;;;;;;-0.35;100.00;96837.44;5038890;28;20539;-71
2023/12/22 00:21:15;;;;;;;5.05;1.00;;;;;;;-0.40;100.00;96857.63;5055759;28;20688;-71
2023/12/22 00:23:41;;;;;;;6.70;1.23;;;;;;;-0.38;100.00;96839.75;5056914;28;20195;-71
2023/12/22 00:26:06;;;;;;;6.20;1.77;;;;;;;-0.39;100.00;96814.38;5055634;28;20032;-71
2023/12/22 00:28:31;;;;;;;3.10;1.23;;;;;;;-0.36;100.00;96850.91;5022729;28;20085;-69
2023/12/22 00:30:58;;;;;;;4.70;1.20;;;;;;;-0.31;100.00;96848.38;5056986;28;20109;-72
2023/12/22 00:33:23;;;;;;;8.73;1.90;;;;;;;-0.27;100.00;96860.06;5057063;28;20044;-73
2023/12/22 00:35:49;;;;;;;7.75;1.65;;;;;;;-0.35;100.00;96865.69;5055535;28;20033;-73
2023/12/22 00:38:14;;;;;;;3.10;1.50;;;;;;;-0.38;100.00;96868.78;5039163;28;20385;-70
2023/12/22 00:40:39;;;;;;;5.93;1.60;;;;;;;-0.35;100.00;96877.06;5058697;28;20036;-70
2023/12/22 00:43:05;;;;;;;6.72;1.60;;;;;;;-0.32;100.00;96879.25;5076585;28;20159;-72
2023/12/22 00:45:30;;;;;;;4.78;1.25;;;;;;;-0.39;100.00;96877.75;5077522;28;20032;-74
2023/12/22 00:47:55;;;;;;;2.03;0.80;;;;;;;-0.37;100.00;96905.53;5059257;28;20137;-77
2023/12/22 00:50:21;;;;;;;5.93;1.27;;;;;;;-0.35;100.00;96892.91;5059074;28;20498;-69
2023/12/22 00:52:46;;;;;;;4.75;1.30;;;;;;;-0.27;100.00;96894.41;5075321;28;20039;-73
2023/12/22 00:55:11;;;;;;;5.82;1.38;;;;;;;-0.55;100.00;96871.28;5058733;28;20086;-76
2023/12/22 00:57:37;;;;;;;3.75;1.73;;;;;;;-0.53;100.00;96906.16;5075404;28;20033;-70
2023/12/22 01:00:04;;;;;;;7.15;1.48;;;;;;;-0.39;100.00;96894.41;5075508;28;20058;-75
2023/12/22 01:02:30;;;;;;;6.03;1.38;;;;;;;-0.47;100.00;96879.66;5074866;28;20047;-80
2023/12/22 01:04:55;;;;;;;3.55;1.33;;;;;;;-0.40;100.00;96910.47;5075125;28;20589;-74
2023/12/22 01:07:20;;;;;;;6.57;1.35;;;;;;;-0.67;100.00;96846.66;5075961;28;20038;-73
2023/12/22 01:09:46;;;;;;;3.45;1.20;;;;;;;-0.73;100.00;96858.91;5076562;28;20064;-72
2023/12/22 01:12:11;;;;;;;5.13;1.30;;;;;;;-0.30;100.00;96914.19;5076242;28;20052;-74
2023/12/22 01:14:37;;;;;;;2.08;0.70;;;;;;;-0.28;100.00;96914.75;5075414;28;20029;-74
2023/12/22 01:17:02;;;;;;;3.33;1.27;;;;;;;-0.37;100.00;96921.38;5074890;28;20035;-79
2023/12/22 01:19:28;;;;;;;1.67;0.90;;;;;;;-0.35;100.00;96921.97;5075201;28;20029;-74
2023/12/22 01:21:53;;;;;;;11.70;0.90;;;;;;;-0.44;100.00;96917.22;5076702;28;20123;-76
2023/12/22 01:24:19;;;;;;;3.17;1.30;;;;;;;-0.47;100.00;96931.69;5076593;28;20024;-77
2023/12/22 01:26:44;;;;;;;3.63;0.85;;;;;;;-0.44;100.00;96941.00;5058182;28;20029;-79
2023/12/22 01:29:09;;;;;;;3.13;0.98;;;;;;;-0.36;100.00;96935.41;5076673;28;20056;-76
2023/12/22 01:31:35;;;;;;;4.35;1.30;;;;;;;-0.31;100.00;96923.13;5076530;28;20103;-79
2023/12/22 01:34:00;;;;;;;2.95;1.08;;;;;;;-0.36;100.00;96917.72;5072996;28;20028;-79
2023/12/22 01:36:25;;;;;;;5.20;1.30;;;;;;;-0.36;100.00;96946.78;5038641;28;20037;-78
2023/12/22 01:38:51;;;;;;;3.50;0.93;;;;;;;-0.55;100.00;96927.53;5055355;28;20028;-77
2023/12/22 01:41:16;;;;;;;5.80;1.77;;;;;;;-0.37;100.00;96960.19;5055174;28;20106;-81
2023/12/22 01:43:46;;;;;;;2.53;0.88;;;;;;;-0.55;100.00;96929.38;5056510;28;20053;-74
2023/12/22 01:46:12;;;;;;;2.75;0.70;;;;;;;-0.27;100.00;96960.47;5056240;28;20044;-80
2023/12/22 01:48:38;;;;;;;3.83;1.02;;;;;;;-0.37;100.00;96970.75;5055212;28;20061;-79
2023/12/22 01:51:05;;;;;;;2.47;0.90;;;;;;;-0.32;100.00;97031.66;5038130;28;20514;-78
2023/12/22 01:53:31;;;;;;;1.50;0.63;;;;;;;-0.26;100.00;96948.88;5055398;28;20373;-78
2023/12/22 01:55:59;;;;;;;3.20;1.08;;;;;;;-0.36;100.00;96954.69;5056161;28;20040;-77
2023/12/22 01:58:26;;;;;;;4.05;0.95;;;;;;;-0.21;100.00;96967.50;5056166;28;20435;-78
2023/12/22 02:00:55;;;;;;;4.05;0.80;;;;;;;-0.24;100.00;96952.09;5054955;28;20510;-78
2023/12/22 02:03:21;;;;;;;3.17;1.05;;;;;;;-0.24;100.00;96957.38;5055759;28;20029;-81
2023/12/22 02:05:48;;;;;;;2.53;1.17;;;;;;;-0.27;100.00;96969.19;5055323;28;20028;-81
2023/12/22 02:08:17;;;;;;;2.70;1.20;;;;;;;-0.27;100.00;96974.47;5054430;28;20032;-78
2023/12/22 02:10:43;;;;;;;3.42;1.00;;;;;;;-0.28;100.00;96951.72;5056155;28;20017;-75
2023/12/22 02:13:09;;;;;;;4.65;0.85;;;;;;;-0.20;100.00;96992.88;5038079;28;20031;-72
2023/12/22 02:15:35;;;;;;;3.03;0.98;;;;;;;-0.22;100.00;96994.94;5034248;28;20407;-76
2023/12/22 02:18:14;;;;;;;6.07;1.08;;;;;;;-0.21;100.00;97001.03;5054308;28;20033;-82
2023/12/22 02:20:40;;;;;;;3.80;0.98;;;;;;;-0.13;100.00;97000.72;5055804;28;20025;-78
2023/12/22 02:23:05;;;;;;;5.15;1.13;;;;;;;-0.17;100.00;96976.56;5055614;28;20032;-79
2023/12/22 02:25:30;;;;;;;6.20;1.40;;;;;;;-0.14;100.00;97005.19;5055599;28;20103;-78
2023/12/22 02:27:58;;;;;;;2.33;0.80;;;;;;;-0.17;100.00;97008.28;5038238;28;20029;-81
2023/12/22 02:30:32;;;;;;;2.45;0.77;;;;;;;-0.35;100.00;97018.91;5054362;28;20290;-76
2023/12/22 02:33:04;;;;;;;5.50;0.93;;;;;;;-0.35;100.00;96997.75;5054484;28;20112;-78
2023/12/22 02:35:34;;;;;;;3.53;0.88;;;;;;;-0.21;100.00;97012.41;5055622;28;20033;-81
2023/12/22 02:38:01;;;;;;;3.53;1.00;;;;;;;-0.30;100.00;97006.66;5055602;28;20035;-81
2023/12/22 02:40:28;;;;;;;4.90;1.10;;;;;;;-0.31;100.00;97020.06;5055065;28;20422;-76
2023/12/22 02:42:54;;;;;;;3.80;1.20;;;;;;;-0.27;100.00;97031.78;5077644;28;20064;-78
2023/12/22 02:45:20;;;;;;;3.88;1.15;;;;;;;-0.27;100.00;97042.34;5061120;28;20055;-81
2023/12/22 02:47:46;;;;;;;3.65;1.33;;;;;;;-0.27;100.00;97018.56;5060927;28;20059;-81
2023/12/22 02:50:13;;;;;;;5.45;0.90;;;;;;;-0.41;100.00;96993.38;5061810;28;20036;-79
2023/12/22 02:52:39;;;;;;;4.22;1.75;;;;;;;-0.29;100.00;97033.84;5044660;28;20437;-77
2023/12/22 02:55:05;;;;;;;3.25;0.90;;;;;;;-0.35;100.00;97053.22;5078585;28;20036;-75
2023/12/22 02:57:30;;;;;;;3.83;1.17;;;;;;;-0.56;100.00;97028.09;5028713;28;20059;-81
2023/12/22 02:59:57;;;;;;;4.72;1.48;;;;;;;-0.44;100.00;97044.00;5081277;28;20032;-77
2023/12/22 03:02:22;;;;;;;2.72;1.23;;;;;;;-0.36;100.00;97054.28;5065653;28;20109;-71
2023/12/22 03:04:47;;;;;;;5.70;1.20;;;;;;;-0.34;100.00;97058.28;5080742;28;20052;-75
2023/12/22 03:07:13;;;;;;;5.75;1.23;;;;;;;-0.48;100.00;97054.19;5061229;28;20043;-76
2023/12/22 03:09:39;;;;;;;6.13;1.67;;;;;;;-0.45;100.00;97056.38;5077915;28;20104;-76
2023/12/22 03:12:06;;;;;;;4.78;1.17;;;;;;;-0.38;100.00;97077.44;5059845;28;20032;-76
2023/12/22 03:14:35;;;;;;;4.22;1.02;;;;;;;-0.41;100.00;97072.59;5060776;28;20028;-82
2023/12/22 03:17:01;;;;;;;2.95;1.00;;;;;;;-0.39;100.00;97067.91;5078926;28;20458;-81
2023/12/22 03:19:27;;;;;;;3.75;1.30;;;;;;;-0.44;100.00;97079.13;5078581;28;20028;-82
2023/12/22 03:21:52;;;;;;;5.97;1.60;;;;;;;-0.57;100.00;97053.66;5060768;28;20476;-81
2023/12/22 03:24:22;;;;;;;5.63;2.03;;;;;;;-0.39;100.00;97076.63;5078369;28;20025;-82
2023/12/22 03:26:50;;;;;;;8.10;1.60;;;;;;;-0.57;100.00;97055.50;5060506;28;20082;-82
2023/12/22 03:29:17;;;;;;;3.53;1.48;;;;;;;-0.43;100.00;97085.22;5060481;28;20028;-82
2023/12/22 03:31:42;;;;;;;5.43;1.38;;;;;;;-0.37;100.00;97102.81;5078292;28;20032;-81
2023/12/22 03:34:07;;;;;;;6.60;1.70;;;;;;;-0.44;100.00;97099.44;5059239;28;20483;-81
2023/12/22 03:36:33;;;;;;;3.75;1.30;;;;;;;-0.43;100.00;97116.91;5060107;28;20033;-82
2023/12/22 03:38:59;;;;;;;4.93;1.30;;;;;;;-0.42;100.00;97123.81;5042566;28;20056;-82
2023/12/22 03:41:24;;;;;;;3.10;1.45;;;;;;;-0.41;100.00;97128.06;5077565;28;20075;-80
2023/12/22 03:43:49;;;;;;;4.25;1.00;;;;;;;-0.58;100.00;97093.50;5077904;28;20116;-82
2023/12/22 03:46:15;;;;;;;6.20;1.70;;;;;;;-0.44;100.00;97118.75;5043296;28;20032;-80
2023/12/22 03:48:40;;;;;;;7.93;1.33;;;;;;;-0.46;100.00;97134.00;5077825;28;20028;-79
2023/12/22 03:51:06;;;;;;;3.17;1.27;;;;;;;-0.50;100.00;97144.22;5060057;28;20039;-81
2023/12/22 03:53:31;;;;;;;2.47;1.30;;;;;;;-0.55;100.00;97133.47;5042948;28;20032;-80
2023/12/22 03:55:56;;;;;;;3.58;1.30;;;;;;;-0.49;100.00;97152.94;5027078;28;20032;-82
2023/12/22 03:58:22;;;;;;;6.00;1.15;;;;;;;-0.55;100.00;97156.44;5077987;28;20089;-74
2023/12/22 04:00:47;;;;;;;4.72;1.45;;;;;;;-0.44;100.00;97162.84;5043412;28;20083;-80
2023/12/22 04:03:13;;;;;;;5.45;1.17;;;;;;;-0.38;100.00;97172.53;5077680;28;20028;-74
2023/12/22 04:05:38;;;;;;;3.78;1.23;;;;;;;-0.36;100.00;97186.34;5059823;28;20036;-74
2023/12/22 04:08:05;;;;;;;2.58;0.90;;;;;;;-0.39;100.00;97189.41;5077187;28;20119;-81
2023/12/22 04:10:30;;;;;;;3.83;1.38;;;;;;;-0.40;100.00;97201.78;5059407;28;20058;-78
2023/12/22 04:12:55;;;;;;;6.75;1.80;;;;;;;-0.59;100.00;97182.47;5041954;28;20025;-76
2023/12/22 04:15:21;;;;;;;6.70;1.55;;;;;;;-0.48;100.00;97210.81;5040798;28;20036;-72
2023/12/22 04:17:46;;;;;;;5.15;1.25;;;;;;;-0.42;100.00;97218.91;5077216;28;20039;-77
2023/12/22 04:20:13;;;;;;;8.27;1.17;;;;;;;-0.44;100.00;97215.66;5059374;28;20016;-81
2023/12/22 04:22:38;;;;;;;4.13;1.40;;;;;;;-0.55;100.00;97217.16;5059528;28;20099;-73
2023/12/22 04:25:05;;;;;;;3.55;1.00;;;;;;;-0.48;100.00;97231.94;5059566;28;20052;-75
2023/12/22 04:27:31;;;;;;;4.00;1.42;;;;;;;-0.47;100.00;97230.91;5077452;28;20113;-76
2023/12/22 04:29:56;;;;;;;3.92;1.42;;;;;;;-0.49;100.00;97248.81;5077249;28;20134;-74
2023/12/22 04:32:22;;;;;;;2.58;1.20;;;;;;;-0.48;100.00;97245.13;5059560;28;20092;-79
2023/12/22 04:34:47;;;;;;;5.88;1.88;;;;;;;-0.51;100.00;97250.03;5077672;28;20383;-80
2023/12/22 04:37:13;;;;;;;3.97;1.08;;;;;;;-0.83;100.00;97215.78;5059065;28;20036;-77
2023/12/22 04:39:38;;;;;;;2.25;1.40;;;;;;;-0.56;100.00;97271.81;5058670;28;20387;-81
2023/12/22 04:42:04;;;;;;;3.17;1.10;;;;;;;-0.54;100.00;97276.88;5038772;28;20052;-82
2023/12/22 04:44:29;;;;;;;4.38;2.15;;;;;;;-0.50;100.00;97289.44;5055563;28;20035;-79
2023/12/22 04:46:55;;;;;;;3.45;1.20;;;;;;;-0.54;100.00;97288.25;5056762;28;20033;-81
2023/12/22 04:49:20;;;;;;;4.00;1.27;;;;;;;-0.61;100.00;97300.69;5038937;28;20032;-72
2023/12/22 04:51:45;;;;;;;2.53;0.80;;;;;;;-0.66;100.00;97287.34;5056900;28;20390;-81
2023/12/22 04:54:11;;;;;;;5.38;1.85;;;;;;;-0.81;100.00;97273.63;5055738;28;20039;-79
2023/12/22 04:56:36;;;;;;;2.28;1.20;;;;;;;-0.57;100.00;97299.22;5038820;28;20058;-81
2023/12/22 04:59:02;;;;;;;5.90;1.35;;;;;;;-0.81;100.00;97278.91;5039025;28;20079;-81
2023/12/22 05:01:27;;;;;;;3.40;0.95;;;;;;;-0.74;100.00;97316.63;5038967;28;20029;-80
2023/12/22 05:03:54;;;;;;;6.07;1.40;;;;;;;-0.75;100.00;97330.84;5057066;28;20035;-81
2023/12/22 05:06:19;;;;;;;3.38;1.40;;;;;;;-0.76;100.00;97326.59;5055162;28;20025;-71
2023/12/22 05:08:45;;;;;;;2.35;0.88;;;;;;;-0.72;100.00;97340.97;5057095;28;20025;-81
2023/12/22 05:11:10;;;;;;;2.33;0.90;;;;;;;-0.83;100.00;97310.78;5039628;28;20037;-77
2023/12/22 05:13:36;;;;;;;3.70;1.13;;;;;;;-0.74;100.00;97338.53;5055779;28;20055;-82
2023/12/22 05:16:01;;;;;;;4.13;1.27;;;;;;;-0.80;100.00;97364.97;5061695;28;20029;-82
2023/12/22 05:18:27;;;;;;;3.40;1.58;;;;;;;-0.98;100.00;97329.53;5063676;28;20108;-79
2023/12/22 05:20:53;;;;;;;2.55;0.77;;;;;;;-0.67;100.00;97364.91;5064770;28;20084;-81
2023/12/22 05:23:20;;;;;;;2.40;0.98;;;;;;;-0.75;100.00;97357.25;5063004;28;20056;-82
2023/12/22 05:25:45;;;;;;;3.70;1.10;;;;;;;-0.69;100.00;97369.59;5059077;28;20059;-81
2023/12/22 05:28:10;;;;;;;3.97;1.35;;;;;;;-0.62;100.00;97382.75;5058649;28;20037;-70
2023/12/22 05:30:36;;;;;;;3.50;0.77;;;;;;;-0.81;100.00;97353.59;5055483;28;20146;-83
2023/12/22 05:33:01;;;;;;;3.42;1.00;;;;;;;-0.69;100.00;97398.63;5055608;28;20021;-78
2023/12/22 05:35:26;;;;;;;2.80;1.17;;;;;;;-1.15;100.00;97338.16;5039716;28;20040;-79
2023/12/22 05:37:52;;;;;;;2.97;1.13;;;;;;;-0.80;100.00;97394.81;5039636;28;20505;-76
2023/12/22 05:40:17;;;;;;;4.45;1.00;;;;;;;-0.65;100.00;97423.59;5054818;28;20048;-78
2023/12/22 05:42:43;;;;;;;5.70;1.90;;;;;;;-0.60;100.00;97425.59;5055736;28;20052;-72
2023/12/22 05:45:10;;;;;;;2.65;1.10;;;;;;;-0.57;100.00;97433.91;5055544;28;20067;-79
2023/12/22 05:47:36;;;;;;;4.13;1.52;;;;;;;-0.72;100.00;97439.47;5054936;28;20025;-81
2023/12/22 05:50:01;;;;;;;1.85;1.00;;;;;;;-0.57;100.00;97460.31;5054558;28;20035;-78
2023/12/22 05:52:27;;;;;;;3.60;1.17;;;;;;;-0.69;100.00;97445.34;5038673;28;20029;-73
2023/12/22 05:54:54;;;;;;;2.45;1.40;;;;;;;-0.68;100.00;97460.97;5055128;28;20113;-71
2023/12/22 05:57:19;;;;;;;6.55;1.10;;;;;;;-0.69;100.00;97456.72;5038322;28;20036;-79
2023/12/22 05:59:44;;;;;;;2.47;1.02;;;;;;;-0.59;100.00;97487.97;5054680;28;20021;-69
2023/12/22 06:02:10;;;;;;;3.80;1.33;;;;;;;-0.78;100.00;97460.63;5055831;28;20484;-73
2023/12/22 06:04:35;;;;;;;4.28;1.15;;;;;;;-0.67;100.00;97481.06;5039634;28;20075;-70
2023/12/22 06:07:01;;;;;;;3.47;1.40;;;;;;;-0.76;100.00;97466.50;5058056;28;20092;-67
2023/12/22 06:09:26;;;;;;;3.33;1.27;;;;;;;-0.76;100.00;97477.88;5055278;28;20037;-76
2023/12/22 06:11:52;;;;;;;1.75;1.02;;;;;;;-0.57;100.00;97489.34;5053171;28;20048;-71
2023/12/22 06:14:18;;;;;;;4.40;1.50;;;;;;;-0.58;100.00;97508.06;5069664;28;20029;-71
2023/12/22 06:16:43;;;;;;;3.45;1.48;;;;;;;-0.62;100.00;97514.78;5058803;28;20021;-66
2023/12/22 06:19:09;;;;;;;4.03;1.73;;;;;;;-0.58;100.00;97508.88;5046362;28;20040;-66
2023/12/22 06:21:38;;;;;;;3.17;1.40;;;;;;;-0.55;100.00;97537.50;5046682;28;20028;-67
2023/12/22 06:24:03;;;;;;;10.48;1.23;;;;;;;-0.56;100.00;97540.38;5063598;28;20317;-67
2023/12/22 06:26:28;;;;;;;3.95;1.65;;;;;;;-0.65;100.00;97546.88;5063655;28;20136;-67
2023/12/22 06:28:54;;;;;;;2.70;1.25;;;;;;;-0.61;100.00;97562.09;5045849;28;20029;-68
2023/12/22 06:31:21;;;;;;;1.77;1.00;;;;;;;-0.62;100.00;97552.56;5045714;28;20041;-67
2023/12/22 06:33:51;;;;;;;1.73;1.00;;;;;;;-0.80;100.00;97534.72;5058027;28;20035;-67
2023/12/22 06:36:21;;;;;;;5.43;1.60;;;;;;;-0.63;100.00;97580.00;5059055;28;20036;-72
2023/12/22 06:38:47;;;;;;;2.38;1.27;;;;;;;-0.65;100.00;97568.81;5060439;28;20519;-68
2023/12/22 06:41:24;;;;;;;2.08;1.42;;;;;;;-0.85;100.00;97568.84;5067409;28;20106;-70
2023/12/22 06:43:50;;;;;;;2.30;0.90;;;;;;;-0.68;100.00;97595.63;5080117;28;20034;-68
2023/12/22 06:46:21;;;;;;;2.75;1.20;;;;;;;-0.78;100.00;97608.44;5062984;28;20032;-75
2023/12/22 06:48:48;;;;;;;2.83;1.45;;;;;;;-0.75;100.00;97615.94;5049529;28;20040;-74
2023/12/22 06:51:26;;;;;;;4.18;1.80;;;;;;;-0.78;100.00;97621.63;5085381;28;20024;-74
2023/12/22 06:53:52;;;;;;;2.20;1.13;;;;;;;-0.76;100.00;97635.47;5067260;28;20012;-74
2023/12/22 06:56:20;;;;;;;1.33;1.00;;;;;;;-1.19;100.00;97572.56;5082569;28;20033;-79
2023/12/22 06:58:48;;;;;;;3.45;1.70;;;;;;;-0.76;100.00;97640.75;5029906;28;20077;-79
2023/12/22 07:01:21;;;;;;;2.40;1.33;;;;;;;-0.80;100.00;97652.69;5056844;28;20032;-78
2023/12/22 07:03:48;;;;;;;4.57;1.50;;;;;;;-0.82;100.00;97652.09;5064533;28;20029;-68
2023/12/22 07:06:15;;;;;;;2.45;1.42;;;;;;;-0.67;100.00;97665.88;5066055;28;20566;-76
2023/12/22 07:08:42;;;;;;;2.92;1.52;;;;;;;-0.69;100.00;97681.16;5051256;28;20036;-75
2023/12/22 07:11:08;;;;;;;3.38;1.65;;;;;;;-0.82;100.00;97675.88;5085528;28;20104;-71
2023/12/22 07:13:34;;;;;;;2.58;1.25;;;;;;;-0.81;100.00;97688.03;5065228;28;20028;-78
2023/12/22 07:16:02;;;;;;;3.78;1.35;;;;;;;-0.75;100.00;97689.88;5047313;28;20033;-78
2023/12/22 07:18:30;;;;;;;2.88;1.63;;;;;;;-0.78;100.00;97690.28;5066217;28;20037;-76
2023/12/22 07:20:58;;;;;;;4.03;1.33;;;;;;;-0.88;100.00;97689.88;5047325;28;20036;-76
2023/12/22 07:23:24;;;;;;;2.83;1.20;;;;;;;-0.83;100.00;97706.72;5046724;28;20072;-73
2023/12/22 07:25:49;;;;;;;2.50;1.25;;;;;;;-0.74;100.00;97708.13;5064960;28;20025;-77
2023/12/22 07:28:15;;;;;;;2.70;1.40;;;;;;;-0.75;100.00;97711.81;5049760;28;20052;-78
2023/12/22 07:30:41;;;;;;;4.53;1.42;;;;;;;-0.71;100.00;97720.94;5084048;28;20035;-78
2023/12/22 07:33:06;;;;;;;3.95;1.90;;;;;;;-0.72;100.00;97719.31;5064596;28;20028;-70
2023/12/22 07:35:32;;;;;;;3.65;1.67;;;;;;;-0.72;100.00;97732.53;5081732;28;20396;-72
2023/12/22 07:37:57;;;;;;;2.88;1.35;;;;;;;-0.85;100.00;97719.31;5045351;28;20040;-79
2023/12/22 07:40:22;;;;;;;3.55;1.67;;;;;;;-0.61;100.00;97744.28;5083906;28;20800;-77
2023/12/22 07:42:48;;;;;;;4.05;1.77;;;;;;;-0.72;100.00;97737.00;5059867;28;20053;-75
2023/12/22 07:45:13;;;;;;;3.88;1.88;;;;;;;-0.74;100.00;97755.66;5040111;28;20033;-76
2023/12/22 07:47:39;;;;;;;3.35;1.25;;;;;;;-0.77;100.00;97756.06;5044283;28;20032;-72
2023/12/22 07:50:08;;;;;;;4.75;2.08;;;;;;;-0.78;100.00;97762.38;5040610;28;20033;-79
2023/12/22 07:52:33;;;;;;;4.38;1.25;;;;;;;-0.79;100.00;97755.47;5040966;28;20084;-77
2023/12/22 07:54:59;;;;;;;3.65;1.45;;;;;;;-0.79;100.00;97776.59;5020772;28;20034;-79
2023/12/22 07:57:24;;;;;;;3.15;1.80;;;;;;;-0.75;100.00;97790.19;5043851;28;20522;-74
2023/12/22 07:59:49;;;;;;;3.78;2.00;;;;;;;-0.77;100.00;97781.66;5038419;28;20037;-75
2023/12/22 08:02:15;;;;;;;4.70;2.17;;;;;;;-0.67;100.00;97771.50;5038104;28;20120;-79
2023/12/22 08:04:41;;;;;;;2.70;1.73;;;;;;;-0.67;100.00;97792.63;5039259;28;20022;-79
2023/12/22 08:07:06;;;;;;;3.80;2.13;;;;;;;-0.64;100.00;97788.78;5037726;28;20116;-78
2023/12/22 08:09:32;;;;;;;5.50;2.28;;;;;;;-0.73;100.00;97807.47;5038193;28;20028;-78
2023/12/22 08:11:58;;;;;;;3.75;1.70;;;;;;;-0.67;100.00;97803.19;5038351;28;20026;-78
2023/12/22 08:14:24;;;;;;;3.40;1.85;;;;;;;-0.61;100.00;97810.31;5038061;28;20049;-73
2023/12/22 08:16:49;;;;;;;4.03;1.80;;;;;;;-0.57;100.00;97802.81;5020599;28;20029;-74
2023/12/22 08:19:14;;;;;;;4.05;1.98;;;;;;;-0.73;100.00;97769.66;5037454;28;20032;-78
2023/12/22 08:21:42;;;;;;;4.10;1.85;;;;;;;-0.55;100.00;97814.78;5020497;28;20026;-78
2023/12/22 08:24:10;;;;;;;4.88;2.50;;;;;;;-0.52;100.00;97803.84;5038533;28;20025;-79
2023/12/22 08:26:36;;;;;;;3.78;1.95;;;;;;;-0.54;100.00;97805.84;5038501;28;20110;-77
2023/12/22 08:29:01;;;;;;;4.50;2.38;;;;;;;-0.30;100.00;97837.97;5037248;28;20488;-72
2023/12/22 08:31:26;;;;;;;6.53;2.35;;;;;;;-0.26;100.00;97840.03;5037799;28;20183;-80
2023/12/22 08:33:52;;;;;;;4.47;2.17;;;;;;;-0.20;100.00;97840.22;5022404;28;20029;-83
2023/12/22 08:36:17;;;;;;;4.38;2.33;;;;;;;-0.23;100.00;97844.09;5020857;28;20030;-81
2023/12/22 08:38:42;;;;;;;4.20;2.28;;;;;;;-0.14;100.00;97858.72;5035661;28;20100;-76
2023/12/22 08:41:08;;;;;;;3.65;1.90;;;;;;;-0.10;100.00;97864.41;5048662;28;20044;-78
2023/12/22 08:43:34;;;;;;;4.80;2.53;;;;;;;-0.20;100.00;97864.81;5059533;28;20029;-84
2023/12/22 08:45:59;;;;;;;3.55;2.17;;;;;;;-0.06;100.00;97865.66;5060353;28;20033;-81
2023/12/22 08:48:25;;;;;;;4.85;1.75;;;;;;;-0.11;100.00;97858.31;5040820;28;20036;-69
2023/12/22 08:50:50;;;;;;;4.53;2.05;;;;;;;-0.01;100.00;97869.28;5059633;28;20455;-71
2023/12/22 08:53:16;;;;;;;5.15;1.90;;;;;;;0.02;100.00;97877.84;5059605;28;20065;-72
2023/12/22 08:55:41;;;;;;;5.25;2.42;;;;;;;-0.01;100.00;97887.78;5077430;28;20032;-74
2023/12/22 08:58:06;;;;;;;4.90;2.17;;;;;;;-0.05;100.00;97880.47;5059288;28;20032;-77
2023/12/22 09:00:32;;;;;;;5.13;2.03;;;;;;;-0.10;100.00;97889.03;5059658;28;20123;-71
2023/12/22 09:02:57;;;;;;;4.93;2.03;;;;;;;-0.25;100.00;97906.91;5043878;28;20024;-75
2023/12/22 09:05:22;;;;;;;4.75;2.03;;;;;;;-0.22;100.00;97895.94;5060262;28;20024;-76
2023/12/22 09:07:48;;;;;;;6.82;2.42;;;;;;;-0.20;100.00;97885.13;5077843;28;20482;-71
2023/12/22 09:10:13;;;;;;;2.33;1.33;;;;;;;-0.07;100.00;97896.53;5059749;28;20063;-79
2023/12/22 09:12:38;;;;;;;4.85;2.08;;;;;;;0.01;100.00;97903.47;5076984;28;20028;-70
2023/12/22 09:15:04;;;;;;;3.88;1.83;;;;;;;0.08;100.00;97898.19;5059727;28;20033;-75
2023/12/22 09:17:29;;;;;;;3.78;1.80;;;;;;;-0.03;100.00;97866.06;5059103;28;20245;-72
2023/12/22 09:19:55;;;;;;;3.08;1.48;;;;;;;0.17;100.00;97921.56;5042925;28;20021;-72
2023/12/22 09:22:21;;;;;;;5.20;1.80;;;;;;;0.16;100.00;97908.53;5059839;28;20162;-76
2023/12/22 09:24:47;;;;;;;4.30;1.90;;;;;;;0.13;100.00;97906.31;5059284;28;20020;-78
2023/12/22 09:27:12;;;;;;;6.38;1.92;;;;;;;-0.43;100.00;97803.63;5042226;28;20035;-71
2023/12/22 09:29:38;;;;;;;2.33;1.00;;;;;;;0.26;100.00;97913.44;5058357;28;20058;-74
2023/12/22 09:32:04;;;;;;;4.05;1.50;;;;;;;0.11;100.00;97889.84;5076472;28;20437;-78
2023/12/22 09:34:29;;;;;;;5.15;1.25;;;;;;;0.05;100.00;97925.03;5058780;28;20037;-68
2023/12/22 09:36:55;;;;;;;13.50;1.98;;;;;;;0.01;100.00;97897.38;5058762;28;20028;-67
2023/12/22 09:39:20;;;;;;;5.18;1.83;;;;;;;-0.28;100.00;97857.91;5058568;28;20032;-72
2023/12/22 09:41:48;;;;;;;2.83;1.60;;;;;;;0.05;100.00;97923.19;5041727;28;20040;-70
2023/12/22 09:44:20;;;;;;;4.18;1.90;;;;;;;-0.04;100.00;97921.75;5076661;28;20028;-69
2023/12/22 09:46:49;;;;;;;3.17;1.70;;;;;;;-0.17;100.00;97917.25;5076766;28;20028;-84
2023/12/22 09:49:16;;;;;;;7.18;1.75;;;;;;;-0.18;100.00;97920.13;5059558;28;20021;-78
2023/12/22 09:51:43;;;;;;;3.75;1.50;;;;;;;-0.21;100.00;97899.38;5061050;28;20110;-81
2023/12/22 09:54:11;;;;;;;5.03;1.48;;;;;;;-0.07;100.00;97932.72;5063145;28;20485;-77
2023/12/22 09:56:41;;;;;;;3.72;1.70;;;;;;;-0.06;100.00;97927.25;5062808;28;20483;-82
2023/12/22 09:59:12;;;;;;;7.72;1.83;;;;;;;-0.01;100.00;97955.72;5063442;28;20040;-80
2023/12/22 10:01:45;;;;;;;3.97;1.33;;;;;;;0.09;100.00;97931.53;5080822;28;20039;-76
2023/12/22 10:04:11;;;;;;;3.70;1.88;;;;;;;-0.01;100.00;97939.84;5084943;28;20054;-72
2023/12/22 10:06:37;;;;;;;4.60;1.77;;;;;;;0.07;100.00;97954.72;5085982;28;20287;-80
2023/12/22 10:09:05;;;;;;;3.67;1.63;;;;;;;-0.50;100.00;97872.28;5052925;28;20203;-76
2023/12/22 10:11:32;;;;;;;3.55;1.63;;;;;;;-0.07;100.00;97925.59;5083620;28;20084;-71
2023/12/22 10:14:00;;;;;;;4.35;1.75;;;;;;;0.00;100.00;97957.38;5082302;28;20035;-80
2023/12/22 10:16:25;;;;;;;4.63;1.77;;;;;;;-0.02;100.00;97967.31;5079634;28;20021;-77
2023/12/22 10:18:51;;;;;;;6.20;1.83;;;;;;;0.05;100.00;97960.19;5079952;28;20035;-80
2023/12/22 10:21:17;;;;;;;4.60;1.63;;;;;;;0.08;100.00;97977.50;5080932;28;20418;-74
2023/12/22 10:23:42;;;;;;;5.13;2.45;;;;;;;-0.07;100.00;97957.31;5082062;28;20024;-71
2023/12/22 10:26:11;;;;;;;3.60;1.50;;;;;;;-0.02;100.00;97969.97;5061856;28;20032;-79
2023/12/22 10:28:36;;;;;;;5.07;1.95;;;;;;;-0.18;100.00;97951.81;5062280;28;20475;-75
2023/12/22 10:31:06;;;;;;;3.55;1.85;;;;;;;-0.13;100.00;97979.28;5063848;28;20072;-82
2023/12/22 10:33:32;;;;;;;5.22;2.13;;;;;;;-0.28;100.00;97952.22;5061696;28;20029;-79
2023/12/22 10:36:01;;;;;;;3.65;1.98;;;;;;;-0.16;100.00;97973.59;5079962;28;20156;-81
2023/12/22 10:38:34;;;;;;;3.65;1.83;;;;;;;-0.24;100.00;97953.44;5079740;28;20036;-75
2023/12/22 10:41:01;;;;;;;3.72;1.95;;;;;;;-0.04;100.00;97985.19;5061340;28;20044;-80
2023/12/22 10:43:26;;;;;;;2.47;1.80;;;;;;;-0.09;100.00;97975.22;5062033;28;20025;-75
2023/12/22 10:45:52;;;;;;;3.45;1.58;;;;;;;-0.16;100.00;97973.59;5045014;28;20043;-75
2023/12/22 10:48:18;;;;;;;2.35;1.17;;;;;;;-0.72;100.00;97874.28;5062279;28;20059;-78
2023/12/22 10:50:43;;;;;;;2.65;1.60;;;;;;;-0.09;100.00;97977.06;5061170;28;20032;-76
2023/12/22 10:53:11;;;;;;;3.00;1.70;;;;;;;-0.21;100.00;97960.16;5062139;28;20024;-80
2023/12/22 10:55:36;;;;;;;2.72;1.33;;;;;;;-0.01;100.00;97980.31;5060149;28;20758;-71
2023/12/22 10:58:05;;;;;;;4.20;2.05;;;;;;;-0.10;100.00;97978.06;5060835;28;20032;-80
2023/12/22 11:00:33;;;;;;;3.50;1.98;;;;;;;-0.09;100.00;97977.06;5061582;28;20071;-79
2023/12/22 11:03:04;;;;;;;1.27;0.88;;;;;;;-0.25;100.00;97959.75;5059767;28;20017;-76
2023/12/22 11:05:33;;;;;;;2.92;1.48;;;;;;;-0.12;100.00;97991.47;5078558;28;20020;-76
2023/12/22 11:08:03;;;;;;;3.22;1.55;;;;;;;-0.08;100.00;97991.91;5061005;28;20797;-82
2023/12/22 11:10:30;;;;;;;2.15;1.27;;;;;;;0.02;100.00;97997.59;5078905;28;20035;-82
2023/12/22 11:12:57;;;;;;;3.20;1.75;;;;;;;-0.06;100.00;97985.41;5043972;28;20023;-72
2023/12/22 11:15:24;;;;;;;3.58;1.83;;;;;;;-0.02;100.00;97968.13;5078419;28;20035;-78
2023/12/22 11:17:51;;;;;;;2.38;1.42;;;;;;;0.07;100.00;97989.09;5061902;28;20059;-75
2023/12/22 11:20:17;;;;;;;3.47;1.85;;;;;;;0.20;100.00;98004.97;5078630;28;20032;-82
2023/12/22 11:22:44;;;;;;;2.60;1.50;;;;;;;0.31;100.00;98004.38;5043722;28;20056;-81